»·PEaware :: N360BG KGEG-KPSP

N360BG :: KGEG-KPSP

FLIGHT INFORMATION

Flight Status: Arrived
Operator: Privately registered:
United States
More flights under this callsign
Pilot: Brandon G. (13)
Aircraft: BOEING 757-200
(B752)
More flights by this aircraft type
Origin: KGEG Spokane Intl
United States
Destination: KPSP Palm Springs Intl
United States
More flights between these airports :: More routes between these airports
Route: +GEG J153 REO OAL BTY EED SBONO1
File this flight plan on PilotEdge
Remarks:
Altitude:
(Current/Filed)
40,000ft
Speed:
(Current/Filed)
425kts
Departed: 21-Nov-17 01:46 PM
Arrived: 21-Nov-17 04:01 PM
Distance/Time
Traveled:
829nm/2:15
Distance/Time
To Go:
Arrived

Flight Plot

Page will automatically refresh every two minutes.

Flight plan parsing failed; only flown route is shown


Map Options




Map Legend


Flown Route
Filed Route
Departure Airport
Arrival Airport
Navaid (VOR, NDB)
Fix

Horizontal Profiles

Position Reports

Time Latitude Longitude Heading Altitude Ground
Speed
21-Nov-17 13:29 47.620289 -117.528544 0 2367ft 0kts
21-Nov-17 13:30 47.620289 -117.528544 0 2367ft 0kts
21-Nov-17 13:31 47.620289 -117.528544 0 2367ft 0kts
21-Nov-17 13:32 47.620289 -117.528544 0 2367ft 0kts
21-Nov-17 13:33 47.620289 -117.528544 0 2367ft 0kts
21-Nov-17 13:34 47.620289 -117.528544 0 2367ft 0kts
21-Nov-17 13:35 47.620289 -117.528544 0 2367ft 0kts
21-Nov-17 13:36 47.620289 -117.528544 0 2367ft 0kts
21-Nov-17 13:37 47.620289 -117.528544 0 2367ft 0kts
21-Nov-17 13:38 47.620289 -117.528544 0 2367ft 0kts
21-Nov-17 13:39 47.620289 -117.528544 0 2367ft 0kts
21-Nov-17 13:40 47.620289 -117.528544 0 2367ft 0kts
21-Nov-17 13:41 47.620289 -117.528544 0 2367ft 0kts
21-Nov-17 13:42 47.620289 -117.528543 0 2367ft 0kts
21-Nov-17 13:43 47.620289 -117.528543 0 2367ft 0kts
21-Nov-17 13:44 47.620289 -117.528544 0 2367ft 0kts
21-Nov-17 13:45 47.620512 -117.528541 0 2366ft 5kts
21-Nov-17 13:46 47.620758 -117.530549 225 2366ft 9kts
21-Nov-17 13:47 47.616888 -117.536390 226 2377ft 25kts
21-Nov-17 13:48 47.611989 -117.543736 224 2389ft 29kts
21-Nov-17 13:49 47.609340 -117.548746 308 2393ft 0kts
21-Nov-17 13:50 47.609357 -117.548776 308 2393ft 2kts
21-Nov-17 13:51 47.611750 -117.547573 47 2387ft 60kts
21-Nov-17 13:52 47.643587 -117.506116 45 4369ft 203kts
21-Nov-17 13:53 47.697001 -117.436827 52 7197ft 301kts
21-Nov-17 13:54 47.667369 -117.323459 173 11594ft 303kts
21-Nov-17 13:55 47.591967 -117.331737 194 12012ft 350kts
21-Nov-17 13:56 47.493315 -117.354442 194 15422ft 372kts
21-Nov-17 13:57 47.388899 -117.378468 194 19046ft 392kts
21-Nov-17 13:58 47.279937 -117.401152 194 22304ft 408kts
21-Nov-17 13:59 47.164411 -117.411930 192 24961ft 429kts
21-Nov-17 14:00 47.044595 -117.424373 192 27301ft 443kts
21-Nov-17 14:01 46.921707 -117.437711 193 29352ft 457kts
21-Nov-17 14:02 46.798393 -117.451780 194 31613ft 458kts
21-Nov-17 14:03 46.672349 -117.464449 195 33872ft 456kts
21-Nov-17 14:04 46.547932 -117.477447 197 36022ft 451kts
21-Nov-17 14:05 46.424005 -117.490472 198 37775ft 451kts
21-Nov-17 14:06 46.300512 -117.503523 198 39406ft 449kts
21-Nov-17 14:07 46.176854 -117.517625 197 40203ft 452kts
21-Nov-17 14:08 46.052189 -117.530898 196 40209ft 453kts
21-Nov-17 14:09 45.927290 -117.542861 196 40213ft 453kts
21-Nov-17 14:10 45.805758 -117.555803 197 40159ft 452kts
21-Nov-17 14:11 45.681276 -117.568103 196 40222ft 456kts
21-Nov-17 14:12 45.555921 -117.580736 196 40220ft 456kts
21-Nov-17 14:13 45.431089 -117.594428 196 40219ft 456kts
21-Nov-17 14:14 45.305337 -117.607771 196 40218ft 455kts
21-Nov-17 14:15 45.179410 -117.620717 195 40218ft 456kts
21-Nov-17 14:16 45.053749 -117.632905 195 40245ft 456kts
21-Nov-17 14:17 44.934037 -117.644557 195 40245ft 456kts
21-Nov-17 14:18 44.812750 -117.656000 195 40261ft 457kts
21-Nov-17 14:19 44.687347 -117.668778 195 40261ft 456kts
21-Nov-17 14:20 44.561614 -117.682009 195 40261ft 456kts
21-Nov-17 14:21 44.435574 -117.694732 195 40261ft 457kts
21-Nov-17 14:22 44.310080 -117.707083 195 40261ft 457kts
21-Nov-17 14:23 44.183836 -117.719440 194 40329ft 458kts
21-Nov-17 14:24 44.057806 -117.731682 194 40324ft 458kts
21-Nov-17 14:25 43.931271 -117.743937 194 40325ft 458kts
21-Nov-17 14:26 43.807172 -117.755875 195 40323ft 452kts
21-Nov-17 14:27 43.681933 -117.767958 194 40325ft 454kts
21-Nov-17 14:28 43.556623 -117.779923 194 40324ft 454kts
21-Nov-17 14:29 43.431744 -117.791810 194 40318ft 454kts
21-Nov-17 14:30 43.306259 -117.803705 194 40277ft 454kts
21-Nov-17 14:31 43.180738 -117.815593 194 40278ft 455kts
21-Nov-17 14:32 43.054871 -117.827408 194 40277ft 455kts
21-Nov-17 14:33 42.929643 -117.839138 194 40277ft 455kts
21-Nov-17 14:34 42.804872 -117.850780 194 40277ft 455kts
21-Nov-17 14:35 42.679002 -117.862500 193 40276ft 456kts
21-Nov-17 14:36 42.552203 -117.869053 189 40277ft 462kts
21-Nov-17 14:37 42.423786 -117.866445 189 40276ft 462kts
21-Nov-17 14:38 42.296131 -117.863591 189 40276ft 462kts
21-Nov-17 14:39 42.167603 -117.860714 188 40276ft 464kts
21-Nov-17 14:40 42.039318 -117.857808 188 40277ft 464kts
21-Nov-17 14:41 41.910617 -117.854921 188 40277ft 464kts
21-Nov-17 14:42 41.783174 -117.852078 188 40276ft 464kts
21-Nov-17 14:43 41.654845 -117.850844 188 40332ft 465kts
21-Nov-17 14:44 41.526064 -117.848403 188 40332ft 465kts
21-Nov-17 14:45 41.397129 -117.843023 187 40331ft 466kts
21-Nov-17 14:46 41.268365 -117.839974 188 40332ft 465kts
21-Nov-17 14:47 41.139266 -117.837788 187 40331ft 466kts
21-Nov-17 14:48 41.010321 -117.835050 187 40332ft 466kts
21-Nov-17 14:49 40.885847 -117.832319 187 40332ft 467kts
21-Nov-17 14:50 40.756999 -117.828417 187 40332ft 466kts
21-Nov-17 14:51 40.628518 -117.825469 187 40331ft 466kts
21-Nov-17 14:52 40.499993 -117.822674 187 40331ft 466kts
21-Nov-17 14:53 40.371034 -117.821129 187 40331ft 465kts
21-Nov-17 14:54 40.242486 -117.819062 185 40331ft 467kts
21-Nov-17 14:55 40.113673 -117.814715 186 40322ft 466kts
21-Nov-17 14:56 39.984960 -117.811760 186 40323ft 466kts
21-Nov-17 14:57 39.858675 -117.809119 187 40325ft 465kts
21-Nov-17 14:58 39.729526 -117.806972 186 40403ft 465kts
21-Nov-17 14:59 39.600654 -117.804040 186 40405ft 465kts
21-Nov-17 15:00 39.472455 -117.801062 186 40403ft 465kts
21-Nov-17 15:01 39.343884 -117.798347 186 40405ft 465kts
21-Nov-17 15:02 39.214893 -117.796007 186 40402ft 465kts
21-Nov-17 15:03 39.085816 -117.793648 186 40404ft 465kts
21-Nov-17 15:04 38.956511 -117.791037 185 40404ft 465kts
21-Nov-17 15:05 38.831433 -117.788487 185 40399ft 465kts
21-Nov-17 15:06 38.702695 -117.785464 185 40305ft 466kts
21-Nov-17 15:07 38.574428 -117.782630 185 40304ft 465kts
21-Nov-17 15:08 38.445837 -117.780416 185 40304ft 465kts
21-Nov-17 15:09 38.317149 -117.778260 185 40376ft 466kts
21-Nov-17 15:10 38.188135 -117.775508 185 40377ft 465kts
21-Nov-17 15:11 38.059733 -117.772198 182 40376ft 466kts
21-Nov-17 15:12 37.937226 -117.712691 150 40389ft 496kts
21-Nov-17 15:13 37.827841 -117.618227 150 40379ft 494kts
21-Nov-17 15:14 37.714750 -117.521112 150 40379ft 493kts
21-Nov-17 15:15 37.601991 -117.424436 150 40381ft 494kts
21-Nov-17 15:16 37.490859 -117.329481 151 40371ft 493kts
21-Nov-17 15:17 37.377317 -117.232853 151 40371ft 496kts
21-Nov-17 15:18 37.263579 -117.136376 150 40373ft 497kts
21-Nov-17 15:19 37.150088 -117.040123 150 40375ft 495kts
21-Nov-17 15:20 37.037615 -116.945397 150 40277ft 495kts
21-Nov-17 15:21 36.923998 -116.850099 150 40277ft 495kts
21-Nov-17 15:22 36.812336 -116.756337 147 40275ft 497kts
21-Nov-17 15:23 36.709332 -116.640319 140 40276ft 503kts
21-Nov-17 15:24 36.608361 -116.523962 140 40278ft 503kts
21-Nov-17 15:25 36.505966 -116.406817 140 40279ft 503kts
21-Nov-17 15:26 36.405619 -116.292077 140 40272ft 503kts
21-Nov-17 15:27 36.303761 -116.176214 140 40273ft 506kts
21-Nov-17 15:28 36.200980 -116.059772 140 40275ft 505kts
21-Nov-17 15:29 36.098386 -115.942996 140 40276ft 505kts
21-Nov-17 15:30 35.995552 -115.826731 140 40251ft 505kts
21-Nov-17 15:31 35.899553 -115.718889 140 40254ft 509kts
21-Nov-17 15:32 35.799281 -115.607214 140 40278ft 509kts
21-Nov-17 15:33 35.694560 -115.490827 139 40277ft 507kts
21-Nov-17 15:34 35.596501 -115.382247 144 40277ft 505kts
21-Nov-17 15:35 35.474756 -115.321270 179 40182ft 485kts
21-Nov-17 15:36 35.345176 -115.343660 198 37755ft 464kts
21-Nov-17 15:37 35.221979 -115.378131 198 35195ft 462kts
21-Nov-17 15:38 35.099017 -115.412810 197 32546ft 473kts
21-Nov-17 15:39 34.970924 -115.449262 196 29864ft 471kts
21-Nov-17 15:40 34.851800 -115.482931 197 26698ft 447kts
21-Nov-17 15:41 34.734148 -115.515582 197 24129ft 427kts
21-Nov-17 15:42 34.618625 -115.547900 197 24272ft 430kts
21-Nov-17 15:43 34.503088 -115.580161 197 24271ft 430kts
21-Nov-17 15:44 34.385617 -115.612861 197 22896ft 435kts
21-Nov-17 15:45 34.270040 -115.644952 197 20868ft 423kts
21-Nov-17 15:46 34.164483 -115.674267 196 18963ft 414kts
21-Nov-17 15:47 34.054738 -115.705298 195 16795ft 403kts
21-Nov-17 15:48 33.952082 -115.745621 222 14746ft 384kts
21-Nov-17 15:49 33.912435 -115.843385 266 12603ft 362kts
21-Nov-17 15:50 33.902694 -115.959747 265 11054ft 326kts
21-Nov-17 15:51 33.851184 -116.022949 183 9882ft 297kts
21-Nov-17 15:52 33.770649 -116.025497 181 7911ft 289kts
21-Nov-17 15:53 33.693221 -116.028783 181 6958ft 281kts
21-Nov-17 15:54 33.627338 -116.032506 190 6875ft 279kts
21-Nov-17 15:55 33.600998 -116.094650 300 6026ft 230kts
21-Nov-17 15:56 33.630756 -116.162071 301 5272ft 216kts
21-Nov-17 15:57 33.657405 -116.222258 301 4300ft 209kts
21-Nov-17 15:58 33.679445 -116.284795 281 3968ft 210kts
21-Nov-17 15:59 33.688690 -116.343009 283 3647ft 206kts
21-Nov-17 16:00 33.725954 -116.407339 316 2631ft 205kts
21-Nov-17 16:01 33.754477 -116.440322 317 2294ft 145kts
21-Nov-17 16:02 33.785253 -116.467987 324 1166ft 129kts
21-Nov-17 16:03 33.819048 -116.498176 323 499ft 129kts
21-Nov-17 16:04 33.823520 -116.502166 322 418ft 130kts
21-Nov-17 16:05 33.830989 -116.508852 322 438ft 80kts
21-Nov-17 16:06 33.831498 -116.511422 143 441ft 28kts
21-Nov-17 16:07 33.826818 -116.509395 190 431ft 19kts
21-Nov-17 16:08 33.826468 -116.509468 190 430ft 0kts
21-Nov-17 16:09 33.826468 -116.509468 190 430ft 0kts

Navigation Log

Ident Type
Flight plan parsing failed, navigation log unavailable